Worden, Illinois
Current Conditions -  °F | °C
As of 9:50 AM on Thursday 30 Oct 2014 (Local Time) from KALN Reporting Station
Broken Clouds Broken Clouds  
Wind Chill: 43°   Ceiling: 10000
Heat Index: 46°   Visibility: 10mi
Dew Point: 41°   Wind: 7mph
Humidity: 81%   Direction: 150°SSE
Pressure: 30.15"   Gusts: NA
Location:  38.93°N, 89.84°W
Report Text: KALN 301450Z 15006KT 10SM BKN100 08/05 A3015
Loading
Personal Weather Stations






























Interactive Weather Map
Tropical Storm Tracking
New forecast layout! Learn more

10-Day Weather Forecast

Advertisements
Track Severe Weather on mobile